Time;durP1;ratioP1;P1;durP2;ratioP2;P2;SDS_P1;SDS_P2;PMS_P1;PMS_P2;Temp;Humidity;BMP_temperature;BMP_pressure;BME280_temperature;BME280_humidity;BME280_pressure;Samples;Min_cycle;Max_cycle;Signal;HPM_P1;HPM_P2
2021/01/09 00:01:41;;;;;;;50.83;22.95;;;;;;;-0.87;92.37;99217.32;1665187;86;22063;-74
2021/01/09 00:04:09;;;;;;;47.30;23.47;;;;;;;-0.88;92.37;99218.38;1665222;86;21152;-75
2021/01/09 00:06:39;;;;;;;47.38;22.80;;;;;;;-0.89;92.41;99222.96;1665220;86;21604;-75
2021/01/09 00:09:07;;;;;;;47.78;22.80;;;;;;;-0.88;92.53;99229.16;1662530;86;21179;-74
2021/01/09 00:11:36;;;;;;;41.95;21.40;;;;;;;-0.88;92.64;99228.63;1659988;86;21687;-74
2021/01/09 00:14:04;;;;;;;47.03;21.60;;;;;;;-0.87;92.68;99224.88;1659920;85;21465;-74
2021/01/09 00:16:31;;;;;;;43.45;21.57;;;;;;;-0.86;92.69;99227.86;1659904;86;21570;-75
2021/01/09 00:18:59;;;;;;;44.30;22.77;;;;;;;-0.85;92.66;99232.71;1659936;86;21018;-75
2021/01/09 00:21:36;;;;;;;45.78;22.55;;;;;;;-0.86;92.64;99232.42;1659900;86;21199;-75
2021/01/09 00:24:07;;;;;;;47.13;22.65;;;;;;;-0.87;92.72;99226.22;1659998;86;21088;-75
2021/01/09 00:26:35;;;;;;;50.00;24.65;;;;;;;-0.86;92.72;99231.08;1659869;86;21389;-72
2021/01/09 00:29:03;;;;;;;42.93;20.45;;;;;;;-0.86;92.73;99235.12;1659900;86;21505;-75
2021/01/09 00:31:32;;;;;;;48.13;22.60;;;;;;;-0.87;92.80;99232.95;1659918;86;21164;-75
2021/01/09 00:34:00;;;;;;;46.25;23.05;;;;;;;-0.88;92.82;99229.16;1659925;86;21152;-76
2021/01/09 00:36:28;;;;;;;48.70;24.72;;;;;;;-0.89;92.91;99225.66;1659902;86;21216;-74
2021/01/09 00:38:55;;;;;;;50.30;23.40;;;;;;;-0.89;92.97;99224.84;1659925;86;21216;-76
2021/01/09 00:41:30;;;;;;;49.33;24.57;;;;;;;-0.90;92.99;99222.67;1659965;86;21104;-76
2021/01/09 00:43:59;;;;;;;50.20;23.65;;;;;;;-0.90;93.09;99224.02;1660043;86;21600;-75
2021/01/09 00:46:26;;;;;;;48.42;23.00;;;;;;;-0.91;93.10;99219.70;1659911;86;21092;-75
2021/01/09 00:48:54;;;;;;;54.80;25.40;;;;;;;-0.91;93.15;99226.44;1659942;86;21097;-75
2021/01/09 00:51:21;;;;;;;51.05;24.67;;;;;;;-0.93;93.23;99221.83;1659871;86;21259;-75
2021/01/09 00:53:49;;;;;;;48.98;24.10;;;;;;;-0.91;93.35;99212.15;1659975;86;21129;-74
2021/01/09 00:56:17;;;;;;;48.13;23.35;;;;;;;-0.90;93.44;99214.59;1659867;86;21050;-75
2021/01/09 00:58:44;;;;;;;48.75;23.67;;;;;;;-0.89;93.47;99211.36;1659957;86;21100;-75
2021/01/09 01:01:12;;;;;;;54.30;24.80;;;;;;;-0.89;93.49;99208.14;1660031;86;21513;-74
2021/01/09 01:03:42;;;;;;;50.48;26.05;;;;;;;-0.87;93.53;99214.09;1659824;86;21006;-75
2021/01/09 01:06:10;;;;;;;50.95;23.35;;;;;;;-0.87;93.58;99203.84;1659782;86;21140;-74
2021/01/09 01:08:38;;;;;;;49.25;24.37;;;;;;;-0.86;93.64;99205.48;1659778;86;21220;-74
2021/01/09 01:11:06;;;;;;;48.50;23.95;;;;;;;-0.86;93.69;99204.95;1659896;86;21109;-74
2021/01/09 01:13:33;;;;;;;47.88;24.05;;;;;;;-0.85;93.66;99201.72;1633498;86;21077;-75
2021/01/09 01:16:02;;;;;;;50.30;23.15;;;;;;;-0.88;93.72;99204.38;1659925;86;21097;-74
2021/01/09 01:18:30;;;;;;;48.60;23.77;;;;;;;-0.87;93.80;99204.66;1659921;86;21580;-75
2021/01/09 01:20:57;;;;;;;48.83;24.18;;;;;;;-0.86;93.86;99198.74;1659882;86;21109;-76
2021/01/09 01:23:25;;;;;;;51.33;25.25;;;;;;;-0.85;93.90;99195.80;1659905;86;21092;-76
2021/01/09 01:25:52;;;;;;;47.83;24.02;;;;;;;-0.85;93.90;99197.67;1659964;86;21097;-75
2021/01/09 01:28:20;;;;;;;51.88;23.73;;;;;;;-0.86;93.92;99194.70;1659887;86;21395;-75
2021/01/09 01:30:49;;;;;;;48.17;21.60;;;;;;;-0.86;93.95;99195.52;1659864;86;21105;-76
2021/01/09 01:33:17;;;;;;;49.80;23.60;;;;;;;-0.86;94.01;99194.70;1659902;86;21070;-76
2021/01/09 01:35:44;;;;;;;48.95;25.85;;;;;;;-0.87;94.08;99191.72;1659867;86;21093;-75
2021/01/09 01:38:12;;;;;;;50.67;24.92;;;;;;;-0.87;94.17;99194.41;1659900;86;21090;-75
2021/01/09 01:40:39;;;;;;;51.73;25.23;;;;;;;-0.86;94.20;99189.31;1659986;86;21574;-76
2021/01/09 01:43:13;;;;;;;54.00;25.27;;;;;;;-0.87;94.25;99189.03;1659917;86;22001;-75
2021/01/09 01:45:41;;;;;;;47.67;23.50;;;;;;;-0.85;94.39;99180.16;1659833;86;21049;-75
2021/01/09 01:48:10;;;;;;;45.45;23.67;;;;;;;-0.84;94.45;99183.14;1659826;86;21596;-75
2021/01/09 01:50:39;;;;;;;51.00;25.23;;;;;;;-0.84;94.47;99186.65;1659916;86;21160;-74
2021/01/09 01:53:07;;;;;;;50.30;26.07;;;;;;;-0.83;94.60;99184.77;1659849;86;21463;-74
2021/01/09 01:55:35;;;;;;;49.73;25.02;;;;;;;-0.82;94.63;99189.09;1659848;86;21130;-74
2021/01/09 01:58:02;;;;;;;50.50;23.10;;;;;;;-0.82;94.60;99188.56;1659834;86;21518;-72
2021/01/09 02:00:30;;;;;;;51.83;25.02;;;;;;;-0.82;94.64;99183.17;1659950;86;21089;-73
2021/01/09 02:03:01;;;;;;;47.80;23.85;;;;;;;-0.81;94.78;99182.64;1659898;86;21184;-75
2021/01/09 02:05:41;;;;;;;52.90;25.47;;;;;;;-0.81;94.83;99186.15;1660128;86;21278;-75
2021/01/09 02:08:12;;;;;;;51.20;24.85;;;;;;;-0.81;94.81;99183.45;1659878;86;21545;-75
2021/01/09 02:10:41;;;;;;;50.00;25.57;;;;;;;-0.80;94.84;99174.30;1659755;86;21077;-75
2021/01/09 02:13:44;;;;;;;48.55;25.82;;;;;;;-0.78;94.84;99179.44;1659835;86;21156;-75
2021/01/09 02:16:11;;;;;;;53.75;25.10;;;;;;;-0.78;94.83;99177.56;1646011;86;21132;-74
2021/01/09 02:18:42;;;;;;;52.50;25.68;;;;;;;-0.78;94.82;99174.05;1659885;86;21390;-72
2021/01/09 02:21:19;;;;;;;49.83;24.93;;;;;;;-0.79;94.87;99171.89;1633977;86;21197;-73
2021/01/09 02:23:47;;;;;;;55.60;26.05;;;;;;;-0.77;94.90;99175.68;1659140;86;22320;-74
2021/01/09 02:26:14;;;;;;;52.20;25.02;;;;;;;-0.77;94.96;99171.11;1659900;85;21493;-74
2021/01/09 02:28:41;;;;;;;50.60;25.77;;;;;;;-0.75;95.04;99170.32;1659841;86;21085;-74
2021/01/09 02:31:09;;;;;;;51.45;25.50;;;;;;;-0.74;95.03;99173.83;1633314;86;21389;-75
2021/01/09 02:33:36;;;;;;;56.95;27.77;;;;;;;-0.75;95.00;99166.81;1659760;86;21536;-75
2021/01/09 02:36:04;;;;;;;48.85;24.80;;;;;;;-0.77;95.00;99167.06;1659882;86;21497;-75
2021/01/09 02:38:32;;;;;;;54.15;26.02;;;;;;;-0.78;95.06;99169.48;1659808;86;21093;-73
2021/01/09 02:41:00;;;;;;;54.35;26.57;;;;;;;-0.76;95.11;99169.22;1659956;86;21568;-73
2021/01/09 02:43:28;;;;;;;50.38;24.47;;;;;;;-0.76;95.14;99166.00;1633440;86;21836;-73
2021/01/09 02:45:56;;;;;;;54.55;26.42;;;;;;;-0.73;95.56;99169.53;1659723;86;21125;-73
2021/01/09 02:48:23;;;;;;;47.08;24.25;;;;;;;-0.72;95.46;99169.00;1659810;86;21097;-74
2021/01/09 02:50:50;;;;;;;49.23;24.30;;;;;;;-0.72;95.44;99175.21;1659908;86;21592;-74
2021/01/09 02:53:18;;;;;;;52.13;23.70;;;;;;;-0.73;95.43;99168.19;1659877;86;21141;-74
2021/01/09 02:55:45;;;;;;;52.95;24.37;;;;;;;-0.71;95.51;99167.41;1659841;86;22425;-74
2021/01/09 02:58:13;;;;;;;51.50;24.95;;;;;;;-0.70;95.43;99166.88;1659789;86;20990;-74
2021/01/09 03:00:41;;;;;;;49.00;24.70;;;;;;;-0.69;95.39;99173.89;1659798;86;21093;-74
2021/01/09 03:03:09;;;;;;;54.42;26.20;;;;;;;-0.69;95.43;99173.36;1659912;86;21613;-74
2021/01/09 03:05:36;;;;;;;50.33;23.75;;;;;;;-0.66;95.48;99174.73;1659957;86;21098;-73
2021/01/09 03:08:05;;;;;;;47.25;24.72;;;;;;;-0.63;95.40;99174.77;1659905;86;22241;-73
2021/01/09 03:10:32;;;;;;;48.58;23.30;;;;;;;-0.61;95.52;99179.38;1663090;86;21125;-73
2021/01/09 03:13:00;;;;;;;45.30;23.32;;;;;;;-0.60;95.46;99173.73;1665185;86;21022;-73
2021/01/09 03:15:27;;;;;;;51.58;25.00;;;;;;;-0.59;95.27;99173.20;1665098;86;21172;-74
2021/01/09 03:17:55;;;;;;;46.25;22.87;;;;;;;-0.61;95.15;99169.94;1665167;86;20955;-73
2021/01/09 03:20:23;;;;;;;48.70;24.27;;;;;;;-0.59;95.17;99171.85;1665282;86;21457;-73
2021/01/09 03:22:51;;;;;;;53.02;25.37;;;;;;;-0.59;95.16;99172.67;1665339;86;21560;-73
2021/01/09 03:25:18;;;;;;;54.75;24.75;;;;;;;-0.59;95.15;99175.36;1665243;86;21013;-73
2021/01/09 03:27:46;;;;;;;56.25;26.87;;;;;;;-0.56;95.21;99172.13;1665191;86;21093;-71
2021/01/09 03:30:15;;;;;;;49.33;23.52;;;;;;;-0.52;95.24;99169.75;1665378;86;21496;-71
2021/01/09 03:32:43;;;;;;;49.18;24.27;;;;;;;-0.50;95.13;99180.56;1665284;86;21446;-74
2021/01/09 03:35:11;;;;;;;53.10;26.68;;;;;;;-0.50;94.92;99171.66;1665310;86;21556;-73
2021/01/09 03:37:39;;;;;;;51.40;25.57;;;;;;;-0.51;94.84;99170.03;1665246;86;21168;-74
2021/01/09 03:40:08;;;;;;;48.80;25.15;;;;;;;-0.50;94.83;99177.87;1665187;86;21080;-73
2021/01/09 03:42:35;;;;;;;45.08;23.32;;;;;;;-0.51;94.67;99172.73;1665295;86;21089;-73
2021/01/09 03:45:06;;;;;;;49.50;25.35;;;;;;;-0.51;94.65;99170.03;1665257;86;21376;-72
2021/01/09 03:47:34;;;;;;;53.38;26.12;;;;;;;-0.52;94.63;99175.14;1665219;86;21089;-74
2021/01/09 03:50:04;;;;;;;49.75;24.55;;;;;;;-0.53;94.60;99174.86;1665256;86;21077;-72
2021/01/09 03:52:32;;;;;;;52.58;25.23;;;;;;;-0.53;94.55;99177.02;1665220;86;21103;-73
2021/01/09 03:55:00;;;;;;;51.13;24.07;;;;;;;-0.54;94.57;99182.67;1665271;86;20966;-74
2021/01/09 03:57:28;;;;;;;45.98;22.30;;;;;;;-0.53;94.55;99184.30;1665269;86;21047;-77
2021/01/09 03:59:57;;;;;;;47.58;23.70;;;;;;;-0.56;94.42;99178.87;1665290;86;21064;-73
2021/01/09 04:02:26;;;;;;;54.73;25.30;;;;;;;-0.55;94.41;99182.39;1665249;86;21085;-70
2021/01/09 04:04:54;;;;;;;53.33;24.30;;;;;;;-0.55;94.39;99181.03;1640202;86;21537;-72
2021/01/09 04:07:21;;;;;;;53.42;23.55;;;;;;;-0.56;94.31;99189.66;1665213;86;21136;-74
2021/01/09 04:09:49;;;;;;;50.23;22.17;;;;;;;-0.56;94.27;99189.66;1664077;86;21376;-72
2021/01/09 04:12:17;;;;;;;45.65;22.13;;;;;;;-0.56;94.21;99184.80;1659918;86;20966;-73
2021/01/09 04:14:44;;;;;;;48.20;24.27;;;;;;;-0.55;94.12;99186.43;1660043;86;21505;-72
2021/01/09 04:17:12;;;;;;;51.80;23.38;;;;;;;-0.55;94.00;99185.90;1659900;86;21111;-72
2021/01/09 04:19:39;;;;;;;51.02;25.48;;;;;;;-0.53;94.06;99188.34;1659964;86;21572;-72
2021/01/09 04:22:07;;;;;;;47.65;24.12;;;;;;;-0.50;94.11;99190.53;1659951;86;21212;-72
2021/01/09 04:24:34;;;;;;;53.58;25.65;;;;;;;-0.49;93.98;99186.23;1659958;86;21108;-73
2021/01/09 04:27:03;;;;;;;50.63;24.80;;;;;;;-0.48;93.83;99190.56;1659878;86;21097;-73
2021/01/09 04:29:31;;;;;;;53.00;24.50;;;;;;;-0.46;93.98;99190.31;1659923;86;21017;-76
2021/01/09 04:31:59;;;;;;;49.15;23.55;;;;;;;-0.45;93.87;99193.29;1659934;86;21580;-75
2021/01/09 04:34:27;;;;;;;50.00;23.83;;;;;;;-0.46;93.65;99190.31;1659921;86;21374;-73
2021/01/09 04:36:55;;;;;;;47.62;23.70;;;;;;;-0.48;93.57;99192.45;1659880;86;21513;-74
2021/01/09 04:39:22;;;;;;;51.00;24.63;;;;;;;-0.46;93.81;99190.31;1659914;86;21496;-76
2021/01/09 04:41:49;;;;;;;49.10;23.32;;;;;;;-0.47;93.65;99190.84;1659926;86;21140;-73
2021/01/09 04:44:17;;;;;;;53.28;23.67;;;;;;;-0.49;93.54;99193.52;1659927;86;21588;-73
2021/01/09 04:46:51;;;;;;;52.60;25.15;;;;;;;-0.50;93.56;99191.88;1659926;86;21220;-74
2021/01/09 04:49:23;;;;;;;51.00;23.95;;;;;;;-0.51;93.58;99195.64;1659873;86;20982;-75
2021/01/09 04:51:51;;;;;;;53.92;24.98;;;;;;;-0.52;93.59;99196.71;1659951;86;21121;-79
2021/01/09 04:54:23;;;;;;;51.77;25.25;;;;;;;-0.52;93.66;99195.36;1660011;86;21623;-77
2021/01/09 04:56:53;;;;;;;49.48;24.18;;;;;;;-0.51;93.81;99206.43;1660166;86;21173;-77
2021/01/09 04:59:22;;;;;;;51.88;25.00;;;;;;;-0.50;93.75;99210.76;1659918;86;21222;-74
2021/01/09 05:01:51;;;;;;;47.30;24.60;;;;;;;-0.53;93.61;99211.26;1659921;86;21026;-86
2021/01/09 05:04:20;;;;;;;50.12;24.15;;;;;;;-0.55;93.69;99210.16;1660104;86;21575;-82
2021/01/09 05:06:47;;;;;;;56.80;25.80;;;;;;;-0.56;93.74;99210.41;1659935;86;21196;-77
2021/01/09 05:09:16;;;;;;;53.45;25.25;;;;;;;-0.53;93.94;99212.61;1659907;86;21110;-84
2021/01/09 05:11:45;;;;;;;58.52;25.52;;;;;;;-0.50;94.04;99217.50;1664165;86;21549;-83
2021/01/09 05:14:13;;;;;;;51.88;24.70;;;;;;;-0.52;93.85;99218.28;1665163;86;20966;-83
2021/01/09 05:16:40;;;;;;;48.35;24.23;;;;;;;-0.52;93.82;99215.59;1665182;86;21146;-82
2021/01/09 05:19:09;;;;;;;54.55;24.63;;;;;;;-0.50;93.96;99219.66;1665183;86;21624;-75
2021/01/09 05:21:37;;;;;;;46.20;24.57;;;;;;;-0.48;93.89;99222.11;1665254;86;21096;-80
2021/01/09 05:24:11;;;;;;;50.40;24.60;;;;;;;-0.49;93.86;99223.98;1657181;86;21843;-82
2021/01/09 05:26:40;;;;;;;52.23;25.15;;;;;;;-0.48;93.82;99221.58;1639775;86;21171;-82
2021/01/09 05:29:07;;;;;;;48.35;24.65;;;;;;;-0.48;93.76;99222.11;1638081;87;21192;-83
2021/01/09 05:31:35;;;;;;;50.50;24.43;;;;;;;-0.48;93.74;99219.41;1638193;87;21507;-82
2021/01/09 05:34:05;;;;;;;56.83;26.57;;;;;;;-0.49;93.68;99225.34;1638161;87;21113;-79
2021/01/09 05:36:32;;;;;;;50.00;23.47;;;;;;;-0.50;93.71;99230.45;1638104;87;21403;-81
2021/01/09 05:39:03;;;;;;;49.08;24.27;;;;;;;-0.51;93.77;99234.74;1638025;87;21029;-82
2021/01/09 05:41:30;;;;;;;50.83;23.80;;;;;;;-0.49;93.80;99238.00;1614668;87;21061;-75
2021/01/09 05:44:03;;;;;;;48.50;23.62;;;;;;;-0.51;93.81;99237.44;1638039;87;21160;-75
2021/01/09 05:46:34;;;;;;;48.10;22.50;;;;;;;-0.52;93.87;99242.55;1645462;86;21240;-81
2021/01/09 05:49:02;;;;;;;45.15;23.83;;;;;;;-0.51;93.92;99246.87;1657514;86;21405;-81
2021/01/09 05:51:33;;;;;;;49.50;23.98;;;;;;;-0.52;93.88;99247.94;1664470;86;21187;-81
2021/01/09 05:54:01;;;;;;;46.45;23.80;;;;;;;-0.54;93.99;99249.55;1664587;86;21210;-81
2021/01/09 05:56:30;;;;;;;51.40;25.48;;;;;;;-0.56;94.01;99253.02;1664524;86;21144;-81
2021/01/09 05:58:57;;;;;;;53.35;25.80;;;;;;;-0.57;94.01;99248.69;1664610;86;21155;-81
2021/01/09 06:01:26;;;;;;;50.48;23.67;;;;;;;-0.57;94.04;99254.63;1664527;86;21215;-80
2021/01/09 06:03:59;;;;;;;48.28;23.75;;;;;;;-0.56;94.05;99262.98;1664503;86;21607;-81
2021/01/09 06:06:44;;;;;;;55.90;27.05;;;;;;;-0.59;94.05;99266.22;1664577;86;21042;-76
2021/01/09 06:09:21;;;;;;;55.75;26.20;;;;;;;-0.61;94.07;99267.81;1664541;86;21191;-77
2021/01/09 06:11:48;;;;;;;47.93;24.18;;;;;;;-0.61;94.24;99265.65;1664549;86;21176;-76
2021/01/09 06:14:16;;;;;;;52.35;25.50;;;;;;;-0.61;94.29;99277.78;1664519;86;21344;-76
2021/01/09 06:16:44;;;;;;;48.73;24.52;;;;;;;-0.62;94.31;99276.97;1664489;86;21156;-76
2021/01/09 06:19:11;;;;;;;52.62;25.45;;;;;;;-0.59;94.41;99279.70;1664578;86;21196;-79
2021/01/09 06:21:39;;;;;;;50.88;24.90;;;;;;;-0.57;94.49;99278.35;1639741;86;21152;-77
2021/01/09 06:24:07;;;;;;;52.85;24.95;;;;;;;-0.55;94.46;99280.80;1664591;86;21215;-79
2021/01/09 06:26:34;;;;;;;49.88;24.35;;;;;;;-0.53;94.42;99285.41;1664511;86;21221;-75
2021/01/09 06:29:19;;;;;;;50.88;23.20;;;;;;;-0.53;94.41;99280.02;1664438;86;21046;-76
2021/01/09 06:31:56;;;;;;;50.98;23.85;;;;;;;-0.50;94.45;99287.08;1641342;86;21103;-80
2021/01/09 06:34:32;;;;;;;48.92;24.45;;;;;;;-0.47;94.30;99283.87;1826764;77;22933;-74
2021/01/09 06:37:04;;;;;;;50.30;23.87;;;;;;;-0.52;94.30;99286.51;1745207;81;21484;-73
2021/01/09 06:39:36;;;;;;;50.25;24.47;;;;;;;-0.48;94.45;99293.03;1760104;81;20970;-78
2021/01/09 06:42:06;;;;;;;50.95;25.80;;;;;;;-0.47;94.31;99288.45;1787865;80;21003;-74
2021/01/09 06:44:34;;;;;;;49.30;24.65;;;;;;;-0.49;94.17;99295.98;1766405;81;20986;-75
2021/01/09 06:47:02;;;;;;;47.75;23.75;;;;;;;-0.50;94.28;99295.16;1766362;81;20934;-76
2021/01/09 06:49:30;;;;;;;52.80;25.08;;;;;;;-0.50;94.28;99297.05;1788831;79;20914;-74
2021/01/09 06:52:02;;;;;;;48.98;23.55;;;;;;;-0.49;94.30;99301.38;1779335;79;21191;-72
2021/01/09 06:54:46;;;;;;;49.55;24.90;;;;;;;-0.47;94.33;99305.98;1757074;81;20929;-78
2021/01/09 06:57:19;;;;;;;50.78;24.12;;;;;;;-0.46;94.47;99308.44;1756832;81;21024;-76
2021/01/09 06:59:51;;;;;;;52.08;25.35;;;;;;;-0.45;94.28;99311.41;1788238;79;21031;-72
2021/01/09 07:02:25;;;;;;;;;;;;;;;-0.43;94.12;99311.17;1777713;80;21081;-74
2021/01/09 07:05:06;;;;;;;53.78;24.23;;;;;;;-0.43;94.09;99315.21;1766032;80;21380;-75
2021/01/09 07:07:38;;;;;;;52.75;24.72;;;;;;;-0.43;94.05;99317.38;1740194;80;21590;-74
2021/01/09 07:10:24;;;;;;;48.23;23.38;;;;;;;-0.40;93.97;99317.41;1787398;79;21189;-76
2021/01/09 07:13:06;;;;;;;52.75;26.40;;;;;;;-0.40;93.92;99317.41;1763966;81;21120;-76
2021/01/09 07:15:36;;;;;;;53.08;25.37;;;;;;;-0.41;93.73;99312.55;1738175;80;21133;-79
2021/01/09 07:18:07;;;;;;;58.92;26.57;;;;;;;-0.39;93.69;99325.78;1758707;81;21379;-83
2021/01/09 07:20:38;;;;;;;53.00;25.92;;;;;;;-0.38;93.56;99322.02;1762033;81;21203;-82
2021/01/09 07:23:07;;;;;;;58.37;27.40;;;;;;;-0.37;93.46;99322.30;1736066;82;20990;-84
2021/01/09 07:25:45;;;;;;;56.95;25.85;;;;;;;-0.37;93.26;99325.00;1735478;82;21523;-82
2021/01/09 07:28:22;;;;;;;55.28;26.97;;;;;;;-0.37;93.33;99330.40;1716663;82;21212;-83
2021/01/09 07:31:08;;;;;;;55.45;26.85;;;;;;;-0.35;93.63;99330.96;1734506;82;21382;-82
2021/01/09 07:33:38;;;;;;;51.30;24.57;;;;;;;-0.32;93.53;99333.70;1722975;82;20972;-82
2021/01/09 07:36:07;;;;;;;55.43;26.20;;;;;;;-0.29;93.40;99333.20;1712622;83;21007;-83
2021/01/09 07:38:35;;;;;;;55.52;26.23;;;;;;;-0.29;93.19;99335.89;1712573;83;20963;-80
2021/01/09 07:41:02;;;;;;;55.08;25.57;;;;;;;-0.28;93.17;99332.95;1665708;83;21478;-80
2021/01/09 07:43:46;;;;;;;64.40;29.23;;;;;;;-0.27;93.00;99330.53;1737258;82;21419;-79
2021/01/09 07:46:32;;;;;;;59.85;28.52;;;;;;;-0.27;92.61;99338.63;1758378;81;21049;-79
2021/01/09 07:49:03;;;;;;;55.52;27.42;;;;;;;-0.25;92.80;99341.08;1729381;82;20947;-81
2021/01/09 07:52:01;;;;;;;52.90;25.85;;;;;;;-0.24;92.63;99343.52;1749542;82;21002;-82
2021/01/09 07:54:43;;;;;;;66.22;30.02;;;;;;;-0.22;92.57;99341.39;1748768;81;20955;-81
2021/01/09 08:00:12;;;;;;;87.05;36.77;;;;;;;-0.12;92.32;99342.05;1873064;76;21872;-81
2021/01/09 08:02:42;;;;;;;67.45;29.92;;;;;;;-0.18;91.99;99345.22;1841699;78;20901;-82
2021/01/09 08:05:21;;;;;;;57.38;27.65;;;;;;;-0.16;92.12;99340.92;1841739;77;21361;-81
2021/01/09 08:07:54;;;;;;;59.15;27.90;;;;;;;-0.11;92.21;99343.69;1836871;76;20893;-80
2021/01/09 08:10:34;;;;;;;57.67;28.00;;;;;;;-0.07;91.80;99338.88;1783331;78;21043;-79
2021/01/09 08:13:06;;;;;;;60.73;27.58;;;;;;;-0.01;92.05;99341.92;1835582;78;21455;-77
2021/01/09 08:15:35;;;;;;;57.00;27.17;;;;;;;0.08;91.85;99344.16;1841841;78;20972;-76
2021/01/09 08:18:06;;;;;;;49.90;25.17;;;;;;;0.10;90.90;99344.72;1841632;78;21360;-77
2021/01/09 08:20:33;;;;;;;66.15;30.65;;;;;;;0.11;90.20;99343.65;1841741;78;21530;-82
2021/01/09 08:23:04;;;;;;;64.20;29.95;;;;;;;0.14;90.27;99348.55;1841661;78;20908;-82
2021/01/09 08:25:33;;;;;;;65.72;29.98;;;;;;;0.20;90.17;99352.41;1832614;76;21536;-80
2021/01/09 08:28:03;;;;;;;61.33;28.57;;;;;;;0.24;89.75;99350.83;1797507;78;21561;-79
2021/01/09 08:30:38;;;;;;;61.58;29.10;;;;;;;0.29;89.37;99347.38;1789642;79;22851;-80
2021/01/09 08:33:11;;;;;;;63.00;29.87;;;;;;;0.31;88.77;99354.69;1774766;80;21004;-81
2021/01/09 08:35:42;;;;;;;68.90;29.30;;;;;;;0.33;88.87;99342.56;1775137;80;20949;-79
2021/01/09 08:38:10;;;;;;;54.75;25.65;;;;;;;0.40;89.30;99349.11;1789787;79;21155;-76
2021/01/09 08:40:37;;;;;;;64.00;28.47;;;;;;;0.45;88.67;99337.02;1772833;79;20918;-77
2021/01/09 08:43:13;;;;;;;52.23;27.35;;;;;;;0.50;88.13;99337.60;1802295;79;21135;-78
2021/01/09 08:45:50;;;;;;;60.80;29.25;;;;;;;0.52;87.93;99340.33;1798014;78;21390;-81
2021/01/09 08:48:24;;;;;;;58.28;26.75;;;;;;;0.59;88.20;99340.91;1801125;79;21065;-84
2021/01/09 08:51:03;;;;;;;73.28;31.15;;;;;;;0.66;87.55;99321.79;1795431;79;21019;-78
2021/01/09 08:53:36;;;;;;;57.38;26.37;;;;;;;0.72;87.09;99329.41;1808762;78;21058;-82
2021/01/09 08:56:04;;;;;;;57.00;28.25;;;;;;;0.78;86.72;99325.14;1799422;79;21355;-82
2021/01/09 08:58:34;;;;;;;50.45;26.95;;;;;;;0.87;86.45;99325.48;1773142;80;21537;-79
2021/01/09 09:01:07;;;;;;;55.75;26.45;;;;;;;0.98;85.12;99323.15;1768346;79;20951;-81
2021/01/09 09:03:38;;;;;;;55.43;26.97;;;;;;;1.06;84.74;99324.02;1768708;79;20995;-82
2021/01/09 09:06:08;;;;;;;54.73;25.45;;;;;;;1.09;83.50;99316.75;1767477;80;21003;-80
2021/01/09 09:08:36;;;;;;;51.13;25.45;;;;;;;1.12;83.58;99319.47;1767438;80;21346;-77
2021/01/09 09:11:04;;;;;;;56.10;27.98;;;;;;;1.18;83.31;99318.41;1753718;79;21110;-78
2021/01/09 09:13:32;;;;;;;52.73;25.90;;;;;;;1.24;83.02;99318.18;1786865;78;21110;-78
2021/01/09 09:16:20;;;;;;;48.42;22.10;;;;;;;1.24;82.61;99318.18;1770046;79;21035;-80
2021/01/09 09:18:48;;;;;;;52.98;27.87;;;;;;;1.21;82.17;99314.64;1766735;80;20900;-79
2021/01/09 09:21:19;;;;;;;55.45;27.42;;;;;;;1.17;82.59;99319.48;1766649;81;21605;-78
2021/01/09 09:23:54;;;;;;;61.28;29.07;;;;;;;1.19;82.81;99320.03;1766896;81;20987;-74
2021/01/09 09:26:31;;;;;;;59.18;28.65;;;;;;;1.22;82.63;99311.40;1766458;81;21146;-75
2021/01/09 09:28:59;;;;;;;53.98;26.57;;;;;;;1.26;82.73;99316.03;1766682;81;21585;-76
2021/01/09 09:31:35;;;;;;;48.95;25.45;;;;;;;1.32;82.61;99313.64;1766704;81;21117;-76
2021/01/09 09:34:07;;;;;;;56.30;27.37;;;;;;;1.40;82.12;99308.81;1763967;80;22260;-77
2021/01/09 09:36:49;;;;;;;48.45;24.20;;;;;;;1.52;82.00;99308.08;1771421;79;21632;-74
2021/01/09 09:39:20;;;;;;;51.53;24.80;;;;;;;1.77;81.46;99303.30;1799483;78;21557;-76
2021/01/09 09:41:55;;;;;;;62.20;28.20;;;;;;;2.13;79.93;99300.20;1799682;78;21035;-82
2021/01/09 09:44:45;;;;;;;51.20;25.65;;;;;;;2.64;78.98;99292.95;1799941;79;21604;-77
2021/01/09 09:47:28;;;;;;;52.73;25.68;;;;;;;3.09;76.50;99298.90;1799741;79;21396;-76
2021/01/09 09:50:00;;;;;;;53.02;26.50;;;;;;;3.47;75.79;99287.14;1798350;79;21014;-75
2021/01/09 09:52:27;;;;;;;60.85;30.25;;;;;;;4.02;74.86;99294.29;1800063;78;20944;-76
2021/01/09 09:55:06;;;;;;;127.07;74.92;;;;;;;4.41;72.01;99290.25;1784617;78;20987;-81
2021/01/09 09:57:34;;;;;;;559.83;379.48;;;;;;;4.74;70.47;99287.28;1794022;78;20964;-81
2021/01/09 10:00:13;;;;;;;127.38;66.65;;;;;;;5.15;68.58;99286.40;1805360;78;21102;-81
2021/01/09 10:02:54;;;;;;;51.35;27.00;;;;;;;5.54;67.38;99284.09;1807671;79;22228;-81
2021/01/09 10:05:23;;;;;;;45.88;22.87;;;;;;;5.90;65.64;99284.49;1781093;80;21271;-80
2021/01/09 10:08:11;;;;;;;43.98;23.55;;;;;;;5.55;62.99;99287.88;1795300;78;21023;-81
2021/01/09 10:10:39;;;;;;;36.08;20.43;;;;;;;4.82;63.11;99292.66;1748194;82;20961;-80
2021/01/09 10:13:06;;;;;;;40.95;22.32;;;;;;;4.00;64.92;99288.33;1759171;80;21194;-79
2021/01/09 10:15:34;;;;;;;39.05;21.50;;;;;;;3.44;66.92;99289.09;1750322;80;21681;-78
2021/01/09 10:18:01;;;;;;;38.80;21.00;;;;;;;3.02;68.09;99290.77;1750358;82;21499;-75
2021/01/09 10:20:29;;;;;;;42.88;21.80;;;;;;;2.68;69.09;99297.30;1750374;80;21056;-80
2021/01/09 10:22:57;;;;;;;37.10;19.67;;;;;;;2.51;70.64;99297.01;1750479;80;21451;-80
2021/01/09 10:25:25;;;;;;;40.28;20.35;;;;;;;2.49;71.01;99301.88;1750374;81;21211;-81
2021/01/09 10:27:52;;;;;;;36.88;19.25;;;;;;;2.37;70.52;99297.79;1750351;82;21073;-80
2021/01/09 10:30:21;;;;;;;34.30;19.20;;;;;;;2.37;71.24;99297.25;1750360;82;20938;-80
2021/01/09 10:32:49;;;;;;;52.80;25.80;;;;;;;2.32;70.88;99295.34;1750128;80;21140;-79
2021/01/09 10:35:17;;;;;;;43.52;20.27;;;;;;;2.24;70.91;99286.95;1750506;81;21100;-78
2021/01/09 10:37:46;;;;;;;49.10;22.42;;;;;;;2.35;70.37;99282.34;1750396;82;21372;-78
2021/01/09 10:40:14;;;;;;;50.28;23.70;;;;;;;2.71;71.60;99277.78;1721469;82;21020;-78
2021/01/09 10:42:41;;;;;;;50.08;22.50;;;;;;;2.87;68.98;99269.38;1750535;82;21076;-79
2021/01/09 10:45:12;;;;;;;44.83;23.10;;;;;;;2.76;69.22;99272.37;1751896;81;20945;-78
2021/01/09 10:47:39;;;;;;;42.30;21.48;;;;;;;2.59;69.56;99271.27;1753246;82;20957;-77
2021/01/09 10:50:09;;;;;;;49.18;24.00;;;;;;;2.58;69.92;99272.36;1746333;80;21151;-80
2021/01/09 10:52:37;;;;;;;37.13;19.35;;;;;;;2.80;70.16;99265.32;1750692;80;21096;-81
2021/01/09 10:55:06;;;;;;;36.28;17.23;;;;;;;3.27;69.36;99263.07;1750737;82;21587;-79
2021/01/09 10:57:33;;;;;;;64.00;25.37;;;;;;;3.49;66.13;99270.86;1750693;81;20992;-81
2021/01/09 11:00:01;;;;;;;53.38;20.65;;;;;;;3.25;64.80;99273.92;1759834;81;21079;-80
2021/01/09 11:02:29;;;;;;;35.08;17.05;;;;;;;2.87;65.33;99268.57;1742096;81;22033;-80
2021/01/09 11:04:56;;;;;;;35.65;16.82;;;;;;;2.47;66.20;99267.47;1765459;80;21119;-79
2021/01/09 11:07:24;;;;;;;42.60;18.15;;;;;;;2.16;67.20;99273.39;1765529;81;21563;-78
2021/01/09 11:09:52;;;;;;;47.43;22.65;;;;;;;1.89;68.26;99265.46;1765078;81;20882;-79
2021/01/09 11:12:20;;;;;;;42.50;21.52;;;;;;;1.68;69.09;99261.08;1747837;82;21145;-78
2021/01/09 11:14:47;;;;;;;39.00;18.80;;;;;;;1.54;69.83;99270.75;1765044;81;21075;-78
2021/01/09 11:17:15;;;;;;;40.45;19.10;;;;;;;1.43;70.59;99267.72;1745863;81;21040;-78
2021/01/09 11:19:43;;;;;;;42.35;20.75;;;;;;;1.33;71.15;99275.23;1765121;81;20976;-79
2021/01/09 11:22:11;;;;;;;39.03;19.80;;;;;;;1.25;72.55;99274.38;1745650;82;21130;-80
2021/01/09 11:24:39;;;;;;;44.13;20.37;;;;;;;1.20;72.32;99277.05;1765123;81;21515;-81
2021/01/09 11:27:08;;;;;;;30.80;14.30;;;;;;;1.09;72.31;99282.95;1745820;81;21760;-81
2021/01/09 11:29:36;;;;;;;28.55;14.53;;;;;;;0.95;72.57;99279.06;1765156;80;21008;-80
2021/01/09 11:32:06;;;;;;;36.38;16.32;;;;;;;0.84;74.21;99294.92;1745549;82;21039;-81
2021/01/09 11:34:33;;;;;;;27.50;14.50;;;;;;;0.76;74.98;99280.54;1766792;81;21037;-79
2021/01/09 11:37:03;;;;;;;26.73;13.35;;;;;;;0.70;75.71;99276.16;1766972;81;21196;-79